Time;durP1;ratioP1;P1;durP2;ratioP2;P2;SDS_P1;SDS_P2;PMS_P1;PMS_P2;Temp;Humidity;BMP_temperature;BMP_pressure;BME280_temperature;BME280_humidity;BME280_pressure;Samples;Min_cycle;Max_cycle;Signal;HPM_P1;HPM_P2
2021/10/06 00:02:04;;;;;;;6.22;0.80;;;;;;;;;;5003015;28;20041;-82
2021/10/06 00:04:30;;;;;;;3.47;0.45;;;;;;;;;;5002341;28;20026;-81
2021/10/06 00:06:55;;;;;;;3.15;0.73;;;;;;;;;;4987594;28;20103;-82
2021/10/06 00:09:21;;;;;;;1.70;0.50;;;;;;;;;;4966584;28;20042;-82
2021/10/06 00:11:48;;;;;;;1.73;0.45;;;;;;;;;;4967245;28;20042;-82
2021/10/06 00:14:14;;;;;;;3.50;0.68;;;;;;;;;;4982575;28;20023;-82
2021/10/06 00:16:40;;;;;;;3.88;0.80;;;;;;;;;;4982268;28;20376;-82
2021/10/06 00:19:06;;;;;;;4.63;0.60;;;;;;;;;;4983296;28;20376;-82
2021/10/06 00:21:32;;;;;;;1.98;0.52;;;;;;;;;;4982834;28;20038;-82
2021/10/06 00:23:58;;;;;;;4.03;0.73;;;;;;;;;;4979717;28;20597;-82
2021/10/06 00:26:24;;;;;;;5.47;0.77;;;;;;;;;;5002927;28;20038;-82
2021/10/06 00:28:50;;;;;;;2.50;0.40;;;;;;;;;;5001215;28;20041;-82
2021/10/06 00:31:16;;;;;;;5.80;0.65;;;;;;;;;;4992910;28;20045;-82
2021/10/06 00:33:42;;;;;;;0.80;0.35;;;;;;;;;;5000614;28;20113;-82
2021/10/06 00:36:09;;;;;;;3.45;0.90;;;;;;;;;;4992826;28;20019;-82
2021/10/06 00:38:35;;;;;;;3.10;0.77;;;;;;;;;;4965254;28;20022;-81
2021/10/06 00:41:02;;;;;;;4.82;0.75;;;;;;;;;;4965075;28;20113;-82
2021/10/06 00:43:29;;;;;;;2.28;0.52;;;;;;;;;;4965354;28;20019;-82
2021/10/06 00:45:55;;;;;;;4.07;0.40;;;;;;;;;;4987056;28;20025;-82
2021/10/06 00:48:21;;;;;;;4.85;0.70;;;;;;;;;;4991330;28;20030;-82
2021/10/06 00:50:47;;;;;;;2.10;0.50;;;;;;;;;;4964632;28;20034;-82
2021/10/06 00:53:13;;;;;;;3.60;0.60;;;;;;;;;;4970736;28;20487;-82
2021/10/06 00:55:40;;;;;;;5.20;0.50;;;;;;;;;;4986900;28;20031;-82
2021/10/06 00:58:06;;;;;;;2.97;0.55;;;;;;;;;;4981615;28;20033;-82
2021/10/06 01:00:32;;;;;;;2.38;0.60;;;;;;;;;;4983818;28;20043;-82
2021/10/06 01:02:58;;;;;;;5.32;0.90;;;;;;;;;;4985438;28;20094;-82
2021/10/06 01:05:24;;;;;;;3.22;0.70;;;;;;;;;;4981443;28;20039;-83
2021/10/06 01:07:50;;;;;;;2.10;0.63;;;;;;;;;;4998263;28;20023;-82
2021/10/06 01:10:16;;;;;;;3.80;0.85;;;;;;;;;;4997311;28;20034;-81
2021/10/06 01:12:42;;;;;;;3.67;1.17;;;;;;;;;;4980474;28;20134;-82
2021/10/06 01:15:10;;;;;;;5.13;1.48;;;;;;;;;;4997602;28;20030;-82
2021/10/06 01:17:36;;;;;;;1.40;0.50;;;;;;;;;;4983188;28;20034;-82
2021/10/06 01:20:03;;;;;;;2.28;0.60;;;;;;;;;;5004642;28;20030;-82
2021/10/06 01:22:29;;;;;;;3.70;0.50;;;;;;;;;;5002264;28;20034;-82
2021/10/06 01:24:55;;;;;;;2.17;0.70;;;;;;;;;;5003028;28;20038;-82
2021/10/06 01:27:21;;;;;;;4.10;1.52;;;;;;;;;;4991955;28;20031;-82
2021/10/06 01:29:47;;;;;;;2.65;1.20;;;;;;;;;;5002984;28;20050;-82
2021/10/06 01:32:15;;;;;;;3.65;0.60;;;;;;;;;;5003201;28;20039;-82
2021/10/06 01:34:41;;;;;;;2.85;0.70;;;;;;;;;;4986602;28;20035;-82
2021/10/06 01:37:07;;;;;;;2.17;0.50;;;;;;;;;;5002020;28;20125;-82
2021/10/06 01:39:34;;;;;;;3.60;0.90;;;;;;;;;;4965397;28;20506;-82
2021/10/06 01:42:00;;;;;;;3.70;0.55;;;;;;;;;;5004717;28;20056;-82
2021/10/06 01:44:26;;;;;;;5.15;0.60;;;;;;;;;;5004182;28;20069;-82
2021/10/06 01:46:52;;;;;;;5.00;0.80;;;;;;;;;;5004681;28;20046;-82
2021/10/06 01:49:18;;;;;;;2.97;0.70;;;;;;;;;;5003851;28;20038;-82
2021/10/06 01:51:44;;;;;;;2.95;0.70;;;;;;;;;;4996216;28;20035;-82
2021/10/06 01:54:10;;;;;;;2.83;0.70;;;;;;;;;;5000766;28;20030;-81
2021/10/06 01:56:36;;;;;;;3.40;0.80;;;;;;;;;;5001287;28;20034;-82
2021/10/06 01:59:03;;;;;;;3.65;0.80;;;;;;;;;;4997401;28;20026;-82
2021/10/06 02:01:29;;;;;;;1.55;0.50;;;;;;;;;;4995074;28;20041;-82
2021/10/06 02:03:55;;;;;;;3.33;0.82;;;;;;;;;;4980084;28;20027;-82
2021/10/06 02:06:21;;;;;;;2.72;0.70;;;;;;;;;;4982978;28;20030;-82
2021/10/06 02:08:47;;;;;;;3.50;0.52;;;;;;;;;;4997766;28;20546;-82
2021/10/06 02:11:14;;;;;;;3.33;0.95;;;;;;;;;;4992775;28;20035;-81
2021/10/06 02:13:40;;;;;;;3.80;0.90;;;;;;;;;;4998439;28;20026;-82
2021/10/06 02:16:06;;;;;;;3.47;1.00;;;;;;;;;;4981311;28;20023;-82
2021/10/06 02:18:32;;;;;;;2.92;0.68;;;;;;;;;;4999105;28;20533;-82
2021/10/06 02:20:58;;;;;;;3.40;0.57;;;;;;;;;;4997829;28;20045;-82
2021/10/06 02:23:24;;;;;;;4.47;0.93;;;;;;;;;;4998981;28;20049;-82
2021/10/06 02:25:50;;;;;;;4.63;0.95;;;;;;;;;;4996155;28;20019;-82
2021/10/06 02:28:16;;;;;;;4.22;1.23;;;;;;;;;;4979184;28;20038;-82
2021/10/06 02:30:43;;;;;;;5.18;0.82;;;;;;;;;;4980343;28;20041;-82
2021/10/06 02:33:09;;;;;;;4.85;0.90;;;;;;;;;;4998013;28;20047;-82
2021/10/06 02:35:35;;;;;;;3.15;0.80;;;;;;;;;;4998277;28;20027;-82
2021/10/06 02:38:01;;;;;;;6.18;0.70;;;;;;;;;;4982021;28;20057;-82
2021/10/06 02:40:27;;;;;;;2.47;0.60;;;;;;;;;;4999223;28;20026;-82
2021/10/06 02:42:53;;;;;;;5.80;0.63;;;;;;;;;;4992599;28;20070;-82
2021/10/06 02:45:20;;;;;;;2.97;0.68;;;;;;;;;;4981321;28;20034;-82
2021/10/06 02:47:46;;;;;;;2.72;0.57;;;;;;;;;;4980527;28;20065;-81
2021/10/06 02:50:14;;;;;;;3.58;0.50;;;;;;;;;;4962065;28;20098;-82
2021/10/06 02:52:40;;;;;;;5.75;0.85;;;;;;;;;;4965633;28;20030;-82
2021/10/06 02:55:06;;;;;;;4.65;0.63;;;;;;;;;;4997468;28;20023;-82
2021/10/06 02:57:33;;;;;;;5.78;1.02;;;;;;;;;;4983621;28;20041;-82
2021/10/06 02:59:59;;;;;;;2.38;0.43;;;;;;;;;;4978030;28;20035;-82
2021/10/06 03:02:25;;;;;;;4.50;0.93;;;;;;;;;;4995019;28;20038;-82
2021/10/06 03:04:51;;;;;;;3.92;0.80;;;;;;;;;;4979088;28;20126;-82
2021/10/06 03:07:17;;;;;;;4.88;0.77;;;;;;;;;;4984303;28;20058;-81
2021/10/06 03:09:43;;;;;;;4.13;1.00;;;;;;;;;;4983019;28;20046;-82
2021/10/06 03:12:10;;;;;;;2.13;0.70;;;;;;;;;;4976537;28;20031;-82
2021/10/06 03:14:36;;;;;;;3.95;0.77;;;;;;;;;;4981069;28;20027;-82
2021/10/06 03:17:02;;;;;;;3.00;0.60;;;;;;;;;;4985552;28;20125;-82
2021/10/06 03:19:28;;;;;;;2.10;0.60;;;;;;;;;;4960904;28;20491;-82
2021/10/06 03:21:54;;;;;;;2.63;0.60;;;;;;;;;;4979200;28;20034;-82
2021/10/06 03:24:20;;;;;;;2.83;0.80;;;;;;;;;;4996145;28;20033;-82
2021/10/06 03:26:46;;;;;;;3.20;0.50;;;;;;;;;;4988579;28;20038;-82
2021/10/06 03:29:12;;;;;;;2.95;0.77;;;;;;;;;;4977899;28;20043;-82
2021/10/06 03:31:38;;;;;;;1.92;1.15;;;;;;;;;;4969548;28;20073;-82
2021/10/06 03:34:04;;;;;;;4.90;0.95;;;;;;;;;;4993433;28;20019;-82
2021/10/06 03:36:30;;;;;;;4.65;0.80;;;;;;;;;;4978097;28;20054;-82
2021/10/06 03:38:56;;;;;;;6.68;0.93;;;;;;;;;;4964549;28;20495;-82
2021/10/06 03:41:22;;;;;;;5.22;0.82;;;;;;;;;;4977340;28;20038;-82
2021/10/06 03:43:48;;;;;;;4.32;0.70;;;;;;;;;;4996472;28;20062;-82
2021/10/06 03:46:14;;;;;;;3.58;0.88;;;;;;;;;;4977701;28;20050;-82
2021/10/06 03:48:40;;;;;;;2.60;0.88;;;;;;;;;;4993425;28;20592;-82
2021/10/06 03:51:06;;;;;;;3.90;0.57;;;;;;;;;;4978756;28;20061;-82
2021/10/06 03:53:32;;;;;;;6.15;0.70;;;;;;;;;;4981141;28;20039;-82
2021/10/06 03:55:58;;;;;;;3.00;0.80;;;;;;;;;;4979100;28;20112;-82
2021/10/06 03:58:24;;;;;;;4.22;0.95;;;;;;;;;;4977837;28;20555;-83
2021/10/06 04:00:50;;;;;;;3.70;0.80;;;;;;;;;;4980714;28;20033;-82
2021/10/06 04:03:16;;;;;;;4.88;0.77;;;;;;;;;;4978705;28;20089;-82
2021/10/06 04:05:42;;;;;;;4.10;0.80;;;;;;;;;;4979209;28;20097;-82
2021/10/06 04:08:08;;;;;;;2.55;0.80;;;;;;;;;;4980625;28;20033;-81
2021/10/06 04:10:34;;;;;;;2.50;0.68;;;;;;;;;;4996658;28;20134;-81
2021/10/06 04:13:01;;;;;;;10.20;0.90;;;;;;;;;;4978378;28;20037;-81
2021/10/06 04:15:27;;;;;;;8.80;1.25;;;;;;;;;;4977299;28;20098;-82
2021/10/06 04:17:53;;;;;;;2.50;0.73;;;;;;;;;;4981303;28;20034;-81
2021/10/06 04:20:19;;;;;;;5.68;1.02;;;;;;;;;;4999165;28;20018;-82
2021/10/06 04:22:45;;;;;;;4.57;1.10;;;;;;;;;;4981782;28;20449;-82
2021/10/06 04:25:11;;;;;;;4.40;1.00;;;;;;;;;;4998878;28;20038;-82
2021/10/06 04:27:37;;;;;;;5.35;1.20;;;;;;;;;;4978477;28;20062;-82
2021/10/06 04:30:07;;;;;;;4.97;0.82;;;;;;;;;;4994022;28;20031;-82
2021/10/06 04:32:33;;;;;;;2.58;0.50;;;;;;;;;;4977225;28;20043;-82
2021/10/06 04:34:59;;;;;;;4.90;0.80;;;;;;;;;;4975729;28;20058;-83
2021/10/06 04:37:25;;;;;;;5.07;0.77;;;;;;;;;;4990272;28;20081;-82
2021/10/06 04:39:51;;;;;;;6.93;0.98;;;;;;;;;;4962509;28;20427;-82
2021/10/06 04:42:17;;;;;;;7.53;1.85;;;;;;;;;;4959591;28;20033;-82
2021/10/06 04:44:43;;;;;;;3.45;0.82;;;;;;;;;;4981056;28;20037;-82
2021/10/06 04:47:09;;;;;;;2.55;0.90;;;;;;;;;;5002264;28;20417;-82
2021/10/06 04:49:35;;;;;;;5.75;0.90;;;;;;;;;;4966436;28;20066;-82
2021/10/06 04:52:01;;;;;;;1.73;0.95;;;;;;;;;;4984345;28;20130;-82
2021/10/06 04:54:27;;;;;;;6.63;0.70;;;;;;;;;;5002345;28;20054;-82
2021/10/06 04:56:53;;;;;;;3.67;0.75;;;;;;;;;;5008124;28;20094;-82
2021/10/06 04:59:19;;;;;;;1.98;0.68;;;;;;;;;;5003328;28;20046;-82
2021/10/06 05:01:45;;;;;;;5.95;1.25;;;;;;;;;;4977021;23;20078;-79
2021/10/06 05:04:11;;;;;;;3.33;0.95;;;;;;;;;;4960177;29;20023;-78
2021/10/06 05:06:37;;;;;;;6.03;0.70;;;;;;;;;;4959053;29;20403;-78
2021/10/06 05:09:03;;;;;;;3.75;0.70;;;;;;;;;;4959683;29;20027;-79
2021/10/06 05:11:29;;;;;;;4.03;0.88;;;;;;;;;;4952404;28;20118;-79
2021/10/06 05:13:55;;;;;;;3.03;0.68;;;;;;;;;;4958798;28;20058;-79
2021/10/06 05:16:21;;;;;;;2.95;0.77;;;;;;;;;;4958466;29;20034;-79
2021/10/06 05:18:47;;;;;;;7.53;0.77;;;;;;;;;;4961747;28;20098;-79
2021/10/06 05:21:13;;;;;;;3.83;0.60;;;;;;;;;;4960246;29;20027;-79
2021/10/06 05:23:39;;;;;;;5.18;0.82;;;;;;;;;;4961835;28;20029;-79
2021/10/06 05:26:05;;;;;;;3.38;0.70;;;;;;;;;;4960042;29;20059;-80
2021/10/06 05:28:31;;;;;;;3.33;0.68;;;;;;;;;;4963740;29;20027;-79
2021/10/06 05:30:57;;;;;;;3.55;0.77;;;;;;;;;;4963135;28;20061;-80
2021/10/06 05:33:24;;;;;;;6.43;0.88;;;;;;;;;;4964249;29;20550;-79
2021/10/06 05:35:50;;;;;;;2.53;0.73;;;;;;;;;;4964767;28;20023;-79
2021/10/06 05:38:16;;;;;;;5.68;1.00;;;;;;;;;;4964204;28;20042;-79
2021/10/06 05:40:42;;;;;;;2.22;0.77;;;;;;;;;;4962329;29;20023;-79
2021/10/06 05:43:11;;;;;;;3.08;0.68;;;;;;;;;;4959211;29;20031;-79
2021/10/06 05:45:37;;;;;;;5.10;1.30;;;;;;;;;;4961772;29;20031;-79
2021/10/06 05:48:04;;;;;;;3.70;0.70;;;;;;;;;;4961593;29;20034;-79
2021/10/06 05:50:30;;;;;;;6.85;1.15;;;;;;;;;;4962770;28;20039;-79
2021/10/06 05:53:03;;;;;;;5.20;0.80;;;;;;;;;;4963841;28;20035;-79
2021/10/06 05:55:29;;;;;;;4.20;0.90;;;;;;;;;;4964501;28;20038;-79
2021/10/06 05:57:55;;;;;;;6.43;0.90;;;;;;;;;;4962191;28;20392;-79
2021/10/06 06:00:21;;;;;;;7.18;1.23;;;;;;;;;;4963048;28;20547;-79
2021/10/06 06:02:47;;;;;;;6.45;1.00;;;;;;;;;;4963127;29;20023;-79
2021/10/06 06:05:13;;;;;;;4.05;0.95;;;;;;;;;;4961942;28;20530;-79
2021/10/06 06:07:40;;;;;;;4.88;1.00;;;;;;;;;;4962390;28;20388;-79
2021/10/06 06:10:06;;;;;;;5.70;0.90;;;;;;;;;;4964108;28;20535;-79
2021/10/06 06:12:33;;;;;;;3.03;0.60;;;;;;;;;;4961857;29;20043;-79
2021/10/06 06:14:59;;;;;;;4.75;0.80;;;;;;;;;;4963371;28;20035;-80
2021/10/06 06:17:24;;;;;;;5.88;1.02;;;;;;;;;;4962829;29;20039;-79
2021/10/06 06:19:50;;;;;;;5.10;0.80;;;;;;;;;;4959397;28;20452;-79
2021/10/06 06:22:16;;;;;;;6.18;1.13;;;;;;;;;;4962962;29;20031;-79
2021/10/06 06:24:42;;;;;;;1.95;0.70;;;;;;;;;;4963114;28;20058;-78
2021/10/06 06:27:09;;;;;;;5.18;1.55;;;;;;;;;;4959915;29;20031;-78
2021/10/06 06:29:36;;;;;;;2.28;0.95;;;;;;;;;;4940201;29;20098;-78
2021/10/06 06:32:02;;;;;;;5.47;1.00;;;;;;;;;;4949848;29;20046;-79
2021/10/06 06:34:28;;;;;;;3.92;0.82;;;;;;;;;;4960851;29;20031;-79
2021/10/06 06:36:54;;;;;;;6.18;0.88;;;;;;;;;;4962731;29;20034;-79
2021/10/06 06:39:20;;;;;;;4.35;0.93;;;;;;;;;;4960683;29;20035;-79
2021/10/06 06:41:46;;;;;;;5.85;2.13;;;;;;;;;;4965624;28;20031;-79
2021/10/06 06:44:12;;;;;;;4.78;0.95;;;;;;;;;;4961446;28;20035;-79
2021/10/06 06:46:39;;;;;;;3.00;0.70;;;;;;;;;;4959871;29;20488;-79
2021/10/06 06:49:06;;;;;;;5.78;0.65;;;;;;;;;;4957817;29;20028;-78
2021/10/06 06:51:32;;;;;;;6.00;1.45;;;;;;;;;;4959390;28;20035;-78
2021/10/06 06:53:58;;;;;;;5.72;0.98;;;;;;;;;;4962770;28;20023;-78
2021/10/06 06:56:24;;;;;;;8.43;0.95;;;;;;;;;;4963178;29;20028;-78
2021/10/06 06:58:50;;;;;;;6.43;1.08;;;;;;;;;;4959389;28;20031;-79
2021/10/06 07:01:17;;;;;;;8.32;1.30;;;;;;;;;;4958633;28;20538;-79
2021/10/06 07:03:43;;;;;;;2.47;0.88;;;;;;;;;;4959019;28;20046;-78
2021/10/06 07:06:09;;;;;;;5.70;0.77;;;;;;;;;;4958380;28;20033;-79
2021/10/06 07:08:36;;;;;;;5.35;0.80;;;;;;;;;;4956842;29;20522;-79
2021/10/06 07:11:02;;;;;;;6.18;0.75;;;;;;;;;;4956968;29;20428;-79
2021/10/06 07:13:28;;;;;;;8.15;1.30;;;;;;;;;;4959044;28;20067;-79
2021/10/06 07:15:54;;;;;;;6.13;1.02;;;;;;;;;;4959895;29;20082;-79
2021/10/06 07:18:20;;;;;;;6.50;1.00;;;;;;;;;;4960041;29;20019;-78
2021/10/06 07:20:46;;;;;;;11.05;1.63;;;;;;;;;;4956913;28;20031;-79
2021/10/06 07:23:12;;;;;;;4.18;0.98;;;;;;;;;;4958981;28;20071;-79
2021/10/06 07:25:38;;;;;;;4.57;0.80;;;;;;;;;;4957778;29;20089;-79
2021/10/06 07:28:04;;;;;;;4.10;1.02;;;;;;;;;;4958436;28;20079;-79
2021/10/06 07:30:30;;;;;;;4.90;0.90;;;;;;;;;;4958434;29;20135;-79
2021/10/06 07:32:58;;;;;;;5.85;0.88;;;;;;;;;;4957890;28;20043;-78
2021/10/06 07:35:24;;;;;;;3.95;0.65;;;;;;;;;;4957785;28;20023;-79
2021/10/06 07:37:50;;;;;;;7.30;0.80;;;;;;;;;;4957400;29;20085;-79
2021/10/06 07:40:16;;;;;;;6.40;0.75;;;;;;;;;;4957533;28;20035;-79
2021/10/06 07:42:42;;;;;;;5.63;1.00;;;;;;;;;;4960080;29;20035;-79
2021/10/06 07:45:08;;;;;;;6.03;1.02;;;;;;;;;;4960205;28;20074;-79
2021/10/06 07:47:34;;;;;;;4.88;0.80;;;;;;;;;;4959486;28;20031;-79
2021/10/06 07:50:00;;;;;;;5.45;0.80;;;;;;;;;;4957556;28;20399;-79
2021/10/06 07:52:26;;;;;;;5.00;1.17;;;;;;;;;;4958253;28;20044;-79
2021/10/06 07:54:52;;;;;;;5.30;1.10;;;;;;;;;;4956134;29;20079;-77
2021/10/06 07:57:18;;;;;;;5.72;0.75;;;;;;;;;;4957525;28;20028;-79
2021/10/06 07:59:44;;;;;;;5.30;0.95;;;;;;;;;;4956107;28;20476;-79
2021/10/06 08:02:11;;;;;;;6.93;1.30;;;;;;;;;;4955932;28;20046;-79
2021/10/06 08:04:37;;;;;;;5.55;0.77;;;;;;;;;;4957868;28;20488;-78
2021/10/06 08:07:03;;;;;;;4.22;0.80;;;;;;;;;;4957348;28;20024;-79
2021/10/06 08:09:29;;;;;;;5.80;0.68;;;;;;;;;;4959311;28;20037;-78
2021/10/06 08:11:55;;;;;;;4.53;0.90;;;;;;;;;;4961614;29;20039;-78
2021/10/06 08:14:21;;;;;;;5.15;1.00;;;;;;;;;;4958327;28;20033;-78
2021/10/06 08:16:48;;;;;;;5.93;1.17;;;;;;;;;;4957381;28;20083;-79
2021/10/06 08:19:14;;;;;;;8.50;0.70;;;;;;;;;;4962085;29;20524;-79
2021/10/06 08:21:40;;;;;;;6.32;0.75;;;;;;;;;;4963143;28;20038;-80
2021/10/06 08:24:06;;;;;;;3.25;0.73;;;;;;;;;;4961971;28;20031;-79
2021/10/06 08:26:32;;;;;;;5.03;0.82;;;;;;;;;;4962285;29;20038;-79
2021/10/06 08:28:58;;;;;;;4.20;1.00;;;;;;;;;;4962183;29;20035;-79
2021/10/06 08:31:24;;;;;;;7.30;0.93;;;;;;;;;;4962173;28;20042;-80
2021/10/06 08:33:50;;;;;;;3.72;1.25;;;;;;;;;;4962486;28;20043;-79
2021/10/06 08:36:16;;;;;;;8.30;0.88;;;;;;;;;;4961305;28;20027;-80
2021/10/06 08:38:42;;;;;;;4.88;0.70;;;;;;;;;;4961282;28;20042;-79
2021/10/06 08:41:08;;;;;;;4.53;0.85;;;;;;;;;;4960168;28;20027;-80
2021/10/06 08:43:36;;;;;;;4.50;1.00;;;;;;;;;;4962934;28;20043;-80
2021/10/06 08:46:02;;;;;;;6.03;0.75;;;;;;;;;;4962993;28;20400;-79
2021/10/06 08:48:28;;;;;;;5.05;0.55;;;;;;;;;;4962544;28;20035;-79
2021/10/06 08:50:54;;;;;;;6.00;0.77;;;;;;;;;;4960237;28;20081;-79
2021/10/06 08:53:20;;;;;;;4.10;0.73;;;;;;;;;;4962330;28;20476;-80
2021/10/06 08:55:46;;;;;;;5.88;0.93;;;;;;;;;;4962790;29;20031;-79
2021/10/06 08:58:12;;;;;;;3.40;0.80;;;;;;;;;;4961205;28;20038;-80
2021/10/06 09:00:52;;;;;;;6.13;0.52;;;;;;;;;;4961727;28;20031;-80
2021/10/06 09:03:38;;;;;;;7.53;0.90;;;;;;;;;;4961844;29;20090;-79
2021/10/06 09:06:14;;;;;;;6.60;0.93;;;;;;;;;;4961384;28;20373;-79
2021/10/06 09:08:44;;;;;;;4.97;0.88;;;;;;;;;;4962342;29;20027;-80
2021/10/06 09:11:10;;;;;;;4.85;1.10;;;;;;;;;;4961912;28;20385;-80
2021/10/06 09:13:38;;;;;;;4.15;0.60;;;;;;;;;;4962102;28;20444;-79
2021/10/06 09:16:04;;;;;;;3.05;0.77;;;;;;;;;;4960315;29;20098;-79
2021/10/06 09:18:31;;;;;;;4.90;0.70;;;;;;;;;;4961919;29;20032;-79
2021/10/06 09:21:02;;;;;;;3.13;0.90;;;;;;;;;;4962054;28;20452;-80
2021/10/06 09:23:31;;;;;;;6.05;1.30;;;;;;;;;;4962149;28;20031;-79
2021/10/06 09:26:01;;;;;;;3.85;0.88;;;;;;;;;;4960911;29;20046;-79
2021/10/06 09:28:29;;;;;;;5.10;0.90;;;;;;;;;;4960476;28;20464;-79
2021/10/06 09:31:15;;;;;;;4.40;0.60;;;;;;;;;;4966238;28;20027;-78
2021/10/06 09:33:52;;;;;;;4.97;0.80;;;;;;;;;;4979464;28;20047;-78
2021/10/06 09:36:20;;;;;;;5.75;0.70;;;;;;;;;;4972756;28;20082;-79
2021/10/06 09:38:54;;;;;;;4.72;1.40;;;;;;;;;;4963077;28;20066;-79
2021/10/06 09:41:27;;;;;;;2.17;0.80;;;;;;;;;;4960395;28;20035;-79
2021/10/06 09:43:57;;;;;;;3.50;0.80;;;;;;;;;;4959652;28;20051;-79
2021/10/06 09:46:23;;;;;;;2.67;0.90;;;;;;;;;;4957112;29;20031;-78
2021/10/06 09:48:49;;;;;;;4.25;0.80;;;;;;;;;;4957891;28;20044;-78
2021/10/06 09:51:15;;;;;;;4.55;0.73;;;;;;;;;;4958586;28;20514;-79
2021/10/06 09:53:48;;;;;;;2.58;0.68;;;;;;;;;;4957653;28;20027;-79
2021/10/06 09:56:16;;;;;;;2.13;0.70;;;;;;;;;;4959743;28;20523;-79
2021/10/06 09:58:42;;;;;;;4.90;1.05;;;;;;;;;;4960597;29;20023;-79
2021/10/06 10:01:08;;;;;;;2.75;0.80;;;;;;;;;;4959356;28;20059;-79
2021/10/06 10:03:35;;;;;;;6.07;0.88;;;;;;;;;;4958803;28;20046;-78
2021/10/06 10:06:01;;;;;;;3.88;0.95;;;;;;;;;;4958442;29;20155;-79
2021/10/06 10:08:27;;;;;;;5.10;1.55;;;;;;;;;;4962264;29;20031;-79
2021/10/06 10:10:53;;;;;;;3.85;0.73;;;;;;;;;;4960005;28;20511;-78
2021/10/06 10:13:23;;;;;;;8.23;0.98;;;;;;;;;;4956635;29;20028;-78
2021/10/06 10:15:50;;;;;;;5.05;0.80;;;;;;;;;;4958937;29;20033;-79
2021/10/06 10:18:18;;;;;;;5.82;0.82;;;;;;;;;;4958150;29;20039;-78
2021/10/06 10:20:45;;;;;;;3.63;0.63;;;;;;;;;;4957253;28;20051;-79
2021/10/06 10:23:17;;;;;;;4.97;1.00;;;;;;;;;;4957779;28;20106;-79
2021/10/06 10:25:44;;;;;;;3.28;1.13;;;;;;;;;;4958606;28;20037;-79
2021/10/06 10:28:10;;;;;;;3.92;0.77;;;;;;;;;;4957400;28;20113;-79
2021/10/06 10:30:40;;;;;;;2.67;0.50;;;;;;;;;;4956940;28;20516;-79
2021/10/06 10:33:06;;;;;;;1.98;0.50;;;;;;;;;;4957352;29;20484;-79
2021/10/06 10:35:33;;;;;;;5.00;1.02;;;;;;;;;;4956759;29;20396;-78
2021/10/06 10:37:58;;;;;;;3.72;0.98;;;;;;;;;;4956875;29;20391;-79
2021/10/06 10:40:43;;;;;;;8.55;1.70;;;;;;;;;;4958971;28;20027;-78
2021/10/06 10:43:20;;;;;;;4.30;0.93;;;;;;;;;;4961087;28;20171;-78
2021/10/06 10:46:02;;;;;;;3.35;0.68;;;;;;;;;;4958744;28;20104;-80
2021/10/06 10:48:33;;;;;;;5.55;0.90;;;;;;;;;;4958605;28;20027;-79
2021/10/06 10:50:59;;;;;;;1.80;0.55;;;;;;;;;;4959284;28;20043;-79
2021/10/06 10:53:43;;;;;;;4.47;0.98;;;;;;;;;;4958846;28;20039;-80
2021/10/06 10:56:11;;;;;;;4.43;0.60;;;;;;;;;;4958490;28;20023;-80
2021/10/06 10:58:41;;;;;;;3.90;0.50;;;;;;;;;;4957601;28;20032;-78
2021/10/06 11:01:09;;;;;;;4.60;0.77;;;;;;;;;;4957872;28;20535;-80
2021/10/06 11:04:04;;;;;;;3.42;0.80;;;;;;;;;;5021190;23;20105;-80
2021/10/06 11:06:34;;;;;;;2.55;0.80;;;;;;;;;;4992270;28;20030;-81
2021/10/06 11:09:00;;;;;;;3.83;0.60;;;;;;;;;;4998315;28;20022;-82
2021/10/06 11:11:27;;;;;;;5.63;0.98;;;;;;;;;;4989351;28;20055;-84
2021/10/06 11:13:53;;;;;;;5.45;0.98;;;;;;;;;;5007443;28;20610;-84
2021/10/06 11:16:21;;;;;;;2.53;0.80;;;;;;;;;;5017043;28;20032;-83
2021/10/06 11:18:51;;;;;;;4.80;0.85;;;;;;;;;;5006770;28;20535;-83
2021/10/06 11:21:38;;;;;;;3.65;0.80;;;;;;;;;;5017483;28;20171;-84
2021/10/06 11:24:19;;;;;;;4.38;0.70;;;;;;;;;;5012754;28;20066;-83
2021/10/06 11:26:46;;;;;;;7.30;0.75;;;;;;;;;;4996878;28;20539;-84
2021/10/06 11:29:12;;;;;;;1.98;0.45;;;;;;;;;;4981580;28;20038;-84
2021/10/06 11:31:39;;;;;;;2.22;0.55;;;;;;;;;;4986172;28;20037;-84
2021/10/06 11:34:07;;;;;;;2.67;0.75;;;;;;;;;;5000151;28;20081;-83
2021/10/06 11:36:34;;;;;;;3.15;0.75;;;;;;;;;;4981480;28;20422;-84
2021/10/06 11:39:03;;;;;;;5.72;0.90;;;;;;;;;;4986126;28;20081;-81
2021/10/06 11:41:29;;;;;;;3.17;0.73;;;;;;;;;;4994942;28;20046;-83
2021/10/06 11:43:56;;;;;;;3.63;0.90;;;;;;;;;;5013061;28;20042;-83
2021/10/06 11:46:32;;;;;;;4.15;0.77;;;;;;;;;;4993149;28;20034;-83
2021/10/06 11:48:59;;;;;;;6.43;1.00;;;;;;;;;;5007287;28;20123;-84
2021/10/06 11:51:37;;;;;;;3.60;0.85;;;;;;;;;;5019975;28;20117;-84
2021/10/06 11:54:03;;;;;;;5.60;0.85;;;;;;;;;;5022126;28;20486;-83
2021/10/06 11:56:31;;;;;;;3.30;0.50;;;;;;;;;;5020110;28;20037;-84
2021/10/06 11:59:14;;;;;;;4.53;1.38;;;;;;;;;;4988493;28;20439;-83
2021/10/06 12:01:40;;;;;;;;;;;;;;;;;;5004321;28;20026;-84
2021/10/06 12:04:07;;;;;;;4.60;0.95;;;;;;;;;;5020459;28;19952;-84
2021/10/06 12:06:33;;;;;;;9.18;0.98;;;;;;;;;;5019661;28;20065;-84
2021/10/06 12:09:01;;;;;;;4.10;0.70;;;;;;;;;;5023734;28;20044;-83
2021/10/06 12:11:27;;;;;;;4.30;0.70;;;;;;;;;;5009678;28;20409;-83
2021/10/06 12:13:53;;;;;;;2.35;0.57;;;;;;;;;;5023151;28;20037;-84
2021/10/06 12:16:30;;;;;;;3.45;0.52;;;;;;;;;;5009819;28;20029;-82
2021/10/06 12:19:00;;;;;;;3.42;0.88;;;;;;;;;;5021762;28;20053;-82
2021/10/06 12:21:27;;;;;;;10.40;1.00;;;;;;;;;;4991606;28;20033;-82
2021/10/06 12:23:53;;;;;;;6.40;0.70;;;;;;;;;;5021954;28;20026;-81
2021/10/06 12:26:21;;;;;;;5.78;0.95;;;;;;;;;;5021195;28;20114;-82
2021/10/06 12:28:57;;;;;;;6.50;0.80;;;;;;;;;;5026354;28;20022;-82
2021/10/06 12:31:26;;;;;;;3.45;0.65;;;;;;;;;;5027247;28;20093;-82
2021/10/06 12:34:02;;;;;;;4.75;0.82;;;;;;;;;;5034120;28;20021;-82
2021/10/06 12:36:28;;;;;;;4.50;0.73;;;;;;;;;;5036300;28;20026;-82
2021/10/06 12:38:54;;;;;;;5.53;1.00;;;;;;;;;;5020841;28;20051;-82
2021/10/06 12:41:20;;;;;;;4.00;0.90;;;;;;;;;;5010292;28;20034;-83
2021/10/06 12:43:47;;;;;;;6.53;0.90;;;;;;;;;;5008541;28;20514;-82
2021/10/06 12:46:13;;;;;;;3.35;0.80;;;;;;;;;;5009534;28;20029;-82
2021/10/06 12:48:53;;;;;;;2.58;0.70;;;;;;;;;;5024347;28;20108;-82
2021/10/06 12:51:27;;;;;;;4.38;0.90;;;;;;;;;;5025426;28;20018;-82
2021/10/06 12:54:15;;;;;;;4.65;0.80;;;;;;;;;;5026154;28;20033;-80
2021/10/06 12:56:47;;;;;;;2.53;0.90;;;;;;;;;;5010082;28;20029;-83
2021/10/06 12:59:14;;;;;;;5.28;0.98;;;;;;;;;;5029826;28;20065;-82
2021/10/06 13:01:41;;;;;;;6.65;1.20;;;;;;;;;;5027379;28;20037;-81
2021/10/06 13:04:10;;;;;;;4.57;0.90;;;;;;;;;;5023949;28;20025;-82
2021/10/06 13:06:36;;;;;;;9.13;0.80;;;;;;;;;;5024488;28;20367;-82
2021/10/06 13:09:04;;;;;;;3.88;0.45;;;;;;;;;;5024265;28;20026;-82
2021/10/06 13:11:31;;;;;;;4.57;0.98;;;;;;;;;;5024897;28;20592;-82
2021/10/06 13:13:57;;;;;;;4.30;0.90;;;;;;;;;;5025780;28;20030;-83
2021/10/06 13:16:23;;;;;;;5.63;1.23;;;;;;;;;;5011074;28;20022;-83
2021/10/06 13:18:49;;;;;;;3.72;0.98;;;;;;;;;;5023526;28;20034;-85
2021/10/06 13:21:15;;;;;;;6.38;1.00;;;;;;;;;;5002143;28;20037;-87
2021/10/06 13:23:41;;;;;;;7.88;1.27;;;;;;;;;;5019891;28;20045;-85
2021/10/06 13:26:08;;;;;;;3.15;1.02;;;;;;;;;;5019857;28;20022;-85
2021/10/06 13:28:34;;;;;;;3.72;0.80;;;;;;;;;;5020983;28;20049;-85
2021/10/06 13:31:00;;;;;;;6.22;1.00;;;;;;;;;;5021209;28;20018;-85
2021/10/06 13:33:27;;;;;;;3.88;1.13;;;;;;;;;;5004110;28;20030;-85
2021/10/06 13:35:53;;;;;;;4.03;0.57;;;;;;;;;;5005020;28;20026;-84
2021/10/06 13:38:19;;;;;;;4.43;1.00;;;;;;;;;;5023682;28;20056;-84
2021/10/06 13:40:45;;;;;;;4.53;0.70;;;;;;;;;;5004800;28;20389;-84
2021/10/06 13:43:11;;;;;;;2.63;0.75;;;;;;;;;;4996471;28;20072;-84
2021/10/06 13:45:40;;;;;;;2.10;0.63;;;;;;;;;;4986676;28;20034;-84
2021/10/06 13:48:06;;;;;;;3.00;0.60;;;;;;;;;;4990213;28;20033;-82
2021/10/06 13:50:32;;;;;;;2.55;0.50;;;;;;;;;;4984834;28;20034;-84
2021/10/06 13:52:58;;;;;;;3.67;0.98;;;;;;;;;;5012388;28;20028;-84
2021/10/06 13:55:24;;;;;;;2.85;0.65;;;;;;;;;;5003494;28;20129;-84
2021/10/06 13:57:50;;;;;;;6.15;0.90;;;;;;;;;;5021595;28;20053;-84
2021/10/06 14:00:16;;;;;;;2.53;0.75;;;;;;;;;;5018927;28;20096;-84
2021/10/06 14:02:43;;;;;;;5.63;0.73;;;;;;;;;;5018503;28;20093;-83
2021/10/06 14:05:09;;;;;;;4.28;0.90;;;;;;;;;;5019102;28;20129;-83
2021/10/06 14:07:35;;;;;;;2.90;0.82;;;;;;;;;;4998364;28;20026;-83
2021/10/06 14:10:02;;;;;;;6.05;1.58;;;;;;;;;;4983504;28;20045;-83
2021/10/06 14:12:28;;;;;;;2.88;0.65;;;;;;;;;;4986125;28;20030;-82
2021/10/06 14:14:54;;;;;;;1.67;0.82;;;;;;;;;;5007700;28;20384;-83
2021/10/06 14:17:20;;;;;;;2.75;0.60;;;;;;;;;;5002557;28;20026;-83
2021/10/06 14:19:46;;;;;;;5.72;0.80;;;;;;;;;;5019026;28;20028;-83
2021/10/06 14:22:12;;;;;;;6.32;0.70;;;;;;;;;;5018654;28;20026;-83
2021/10/06 14:24:38;;;;;;;1.90;0.60;;;;;;;;;;5018957;28;20056;-83
2021/10/06 14:27:04;;;;;;;3.17;1.02;;;;;;;;;;5020175;28;20475;-83
2021/10/06 14:29:30;;;;;;;3.90;1.00;;;;;;;;;;5019403;28;20037;-83
2021/10/06 14:31:56;;;;;;;4.07;0.88;;;;;;;;;;5018397;28;20036;-83
2021/10/06 14:34:22;;;;;;;3.63;0.85;;;;;;;;;;5024241;28;20117;-83
2021/10/06 14:36:48;;;;;;;3.20;0.98;;;;;;;;;;5024583;28;20029;-83
2021/10/06 14:39:14;;;;;;;4.65;0.90;;;;;;;;;;5021753;28;20082;-83
2021/10/06 14:41:40;;;;;;;2.92;1.00;;;;;;;;;;5023061;28;20036;-83
2021/10/06 14:44:06;;;;;;;5.65;1.08;;;;;;;;;;5004087;28;20376;-83